createdAt,value
2023-01-25T00:00:41.214Z,40.90
2023-01-25T00:04:53.827Z,39.08
2023-01-25T00:09:06.206Z,45.88
2023-01-25T00:13:18.727Z,40.10
2023-01-25T00:17:31.125Z,38.80
2023-01-25T00:21:43.780Z,37.00
2023-01-25T00:25:59.318Z,32.97
2023-01-25T00:30:12.053Z,27.90
2023-01-25T00:34:24.404Z,25.25
2023-01-25T00:38:39.066Z,22.38
2023-01-25T00:42:51.413Z,18.42
2023-01-25T00:47:08.243Z,17.83
2023-01-25T00:51:20.677Z,18.23
2023-01-25T00:55:34.476Z,17.90
2023-01-25T00:59:47.805Z,17.80
2023-01-25T01:04:00.562Z,19.35
2023-01-25T01:08:18.268Z,18.23
2023-01-25T01:12:30.776Z,18.13
2023-01-25T01:16:43.270Z,19.20
2023-01-25T01:20:56.104Z,19.63
2023-01-25T01:25:09.576Z,18.90
2023-01-25T01:29:22.672Z,19.50
2023-01-25T01:33:36.264Z,19.92
2023-01-25T01:37:48.703Z,20.50
2023-01-25T01:42:02.441Z,20.95
2023-01-25T01:46:25.655Z,23.05
2023-01-25T01:50:38.267Z,21.75
2023-01-25T01:55:03.955Z,21.65
2023-01-25T01:59:25.627Z,22.50
2023-01-25T02:03:41.869Z,22.30
2023-01-25T02:07:56.380Z,22.73
2023-01-25T02:12:10.888Z,21.88
2023-01-25T02:16:26.647Z,20.27
2023-01-25T02:20:42.697Z,19.48
2023-01-25T02:25:19.143Z,20.42
2023-01-25T02:29:32.878Z,20.42
2023-01-25T02:33:46.226Z,20.58
2023-01-25T02:37:58.471Z,21.05
2023-01-25T02:42:10.614Z,21.65
2023-01-25T02:46:36.821Z,19.92
2023-01-25T02:50:49.211Z,6.18
2023-01-25T02:55:03.495Z,6.50
2023-01-25T02:59:17.148Z,14.98
2023-01-25T03:03:33.266Z,17.67
2023-01-25T03:07:48.745Z,20.45
2023-01-25T03:12:02.174Z,20.55
2023-01-25T03:16:16.160Z,18.38
2023-01-25T03:20:31.176Z,18.05
2023-01-25T03:24:43.420Z,18.70
2023-01-25T03:28:57.105Z,17.83
2023-01-25T03:33:13.440Z,18.00
2023-01-25T03:37:40.670Z,16.73
2023-01-25T03:41:56.483Z,15.45
2023-01-25T03:46:10.840Z,13.77
2023-01-25T03:50:24.770Z,11.35
2023-01-25T03:54:39.543Z,9.00
2023-01-25T03:58:53.951Z,6.65
2023-01-25T04:03:07.582Z,6.43
2023-01-25T04:07:20.692Z,7.05
2023-01-25T04:11:33.585Z,8.20
2023-01-25T04:15:45.907Z,7.72
2023-01-25T04:20:10.080Z,7.75
2023-01-25T04:24:25.473Z,7.88
2023-01-25T04:28:37.686Z,6.80
2023-01-25T04:32:51.054Z,8.20
2023-01-25T04:37:08.344Z,9.63
2023-01-25T04:41:30.981Z,10.00
2023-01-25T04:45:43.688Z,11.85
2023-01-25T04:50:04.604Z,11.38
2023-01-25T04:54:18.206Z,4.57
2023-01-25T04:58:30.401Z,11.40
2023-01-25T05:02:43.176Z,11.32
2023-01-25T05:06:55.415Z,10.30
2023-01-25T05:11:07.633Z,11.18
2023-01-25T05:15:34.268Z,10.60
2023-01-25T05:19:47.868Z,3.70
2023-01-25T05:24:02.868Z,10.82
2023-01-25T05:28:16.800Z,10.65
2023-01-25T05:32:50.537Z,11.70
2023-01-25T05:37:04.206Z,9.80
2023-01-25T05:41:16.704Z,11.05
2023-01-25T05:45:30.404Z,10.77
2023-01-25T05:49:44.180Z,10.95
2023-01-25T05:54:03.139Z,11.55
2023-01-25T05:58:15.426Z,15.05
2023-01-25T06:02:28.579Z,25.00
2023-01-25T06:06:40.909Z,25.92
2023-01-25T06:10:53.140Z,28.13
2023-01-25T06:15:05.834Z,26.77
2023-01-25T06:19:18.206Z,22.08
2023-01-25T06:23:50.520Z,23.63
2023-01-25T06:28:02.809Z,20.35
2023-01-25T06:32:15.002Z,18.98
2023-01-25T06:36:27.261Z,17.73
2023-01-25T06:40:39.465Z,18.63
2023-01-25T06:44:51.591Z,20.15
2023-01-25T06:49:03.806Z,19.42
2023-01-25T06:53:15.983Z,21.63
2023-01-25T06:57:29.608Z,16.88
2023-01-25T07:01:41.871Z,6.32
2023-01-25T07:06:05.668Z,24.60
2023-01-25T07:10:17.922Z,24.63
2023-01-25T07:14:30.116Z,12.55
2023-01-25T07:18:42.790Z,13.18
2023-01-25T07:23:06.117Z,3.97
2023-01-25T07:27:18.380Z,3.42
2023-01-25T07:31:30.925Z,3.58
2023-01-25T07:35:43.199Z,4.07
2023-01-25T07:39:58.307Z,4.28
2023-01-25T07:44:10.885Z,4.03
2023-01-25T07:48:26.907Z,3.75
2023-01-25T07:52:41.996Z,3.95
2023-01-25T07:56:54.265Z,4.00
2023-01-25T08:01:17.259Z,3.95
2023-01-25T08:05:29.548Z,4.03
2023-01-25T08:09:42.808Z,4.00
2023-01-25T08:13:55.606Z,3.90
2023-01-25T08:18:07.781Z,3.70
2023-01-25T08:22:19.979Z,3.70
2023-01-25T08:26:32.780Z,3.88
2023-01-25T08:30:56.387Z,3.83
2023-01-25T08:35:10.032Z,3.63
2023-01-25T08:39:22.628Z,3.50
2023-01-25T08:43:35.582Z,3.70
2023-01-25T08:47:47.783Z,2.78
2023-01-25T08:51:59.921Z,3.38
2023-01-25T08:56:15.176Z,3.10
2023-01-25T09:00:27.273Z,3.65
2023-01-25T09:04:39.631Z,2.80
2023-01-25T09:08:51.828Z,3.47
2023-01-25T09:13:04.300Z,2.72
2023-01-25T09:17:16.907Z,2.95
2023-01-25T09:21:30.204Z,3.35
2023-01-25T09:25:42.353Z,3.15
2023-01-25T09:30:02.185Z,3.20
2023-01-25T09:34:26.800Z,2.53
2023-01-25T09:38:39.527Z,2.70
2023-01-25T09:43:21.731Z,3.17
2023-01-25T09:47:45.978Z,3.05
2023-01-25T09:52:24.496Z,3.60
2023-01-25T09:56:38.631Z,3.22
2023-01-25T10:00:58.792Z,3.22
2023-01-25T10:05:23.137Z,17.92
2023-01-25T10:10:06.812Z,22.00
2023-01-25T10:14:21.873Z,30.73
2023-01-25T10:18:52.033Z,31.52
2023-01-25T10:23:27.298Z,29.55
2023-01-25T10:27:45.384Z,32.47
2023-01-25T10:32:35.799Z,32.53
2023-01-25T10:37:04.982Z,5.57
2023-01-25T10:41:39.196Z,3.90
2023-01-25T10:45:52.243Z,3.30
2023-01-25T10:50:04.915Z,3.30
2023-01-25T10:54:17.275Z,2.78
2023-01-25T10:58:32.383Z,2.47
2023-01-25T11:02:46.714Z,3.05
2023-01-25T11:07:00.051Z,2.80
2023-01-25T11:11:24.595Z,2.72
2023-01-25T11:15:36.984Z,2.80
2023-01-25T11:19:49.236Z,2.88
2023-01-25T11:24:09.146Z,2.90
2023-01-25T11:28:24.416Z,3.50
2023-01-25T11:32:39.640Z,4.93
2023-01-25T11:37:34.436Z,4.35
2023-01-25T11:42:12.838Z,3.78
2023-01-25T11:46:43.936Z,4.30
2023-01-25T11:51:01.734Z,21.65
2023-01-25T11:55:31.996Z,31.70
2023-01-25T11:59:48.554Z,31.45
2023-01-25T12:04:33.045Z,35.42
2023-01-25T12:09:01.154Z,38.30
2023-01-25T12:13:39.586Z,25.25
2023-01-25T12:18:11.545Z,6.13
2023-01-25T12:22:46.452Z,2.75
2023-01-25T12:27:07.647Z,1.80
2023-01-25T12:31:23.692Z,2.60
2023-01-25T12:35:45.208Z,4.38
2023-01-25T12:40:14.547Z,1.90
2023-01-25T12:44:35.946Z,2.63
2023-01-25T12:48:53.617Z,2.15
2023-01-25T12:53:12.154Z,2.08
2023-01-25T12:57:45.223Z,1.60
2023-01-25T13:02:30.653Z,1.30
2023-01-25T13:07:13.788Z,1.58
2023-01-25T13:11:43.829Z,1.85
2023-01-25T13:15:56.674Z,2.05
2023-01-25T13:20:44.786Z,2.08
2023-01-25T13:25:11.976Z,2.58
2023-01-25T13:29:35.080Z,2.00
2023-01-25T13:33:47.491Z,2.15
2023-01-25T13:38:24.917Z,2.25
2023-01-25T13:42:39.795Z,2.40
2023-01-25T13:46:51.988Z,1.85
2023-01-25T13:51:10.521Z,2.10
2023-01-25T13:55:22.693Z,1.58
2023-01-25T13:59:34.939Z,1.42
2023-01-25T14:03:53.345Z,1.73
2023-01-25T14:08:13.717Z,2.00
2023-01-25T14:12:40.803Z,2.13
2023-01-25T14:17:21.419Z,2.22
2023-01-25T14:21:34.748Z,2.58
2023-01-25T14:25:51.487Z,2.85
2023-01-25T14:30:06.968Z,2.80
2023-01-25T14:34:20.714Z,17.30
2023-01-25T14:38:38.333Z,26.35
2023-01-25T14:42:53.195Z,26.65
2023-01-25T14:47:33.547Z,22.40
2023-01-25T14:51:47.841Z,21.02
2023-01-25T14:56:00.374Z,22.52
2023-01-25T15:00:23.266Z,19.65
2023-01-25T15:04:36.114Z,20.70
2023-01-25T15:08:49.880Z,20.35
2023-01-25T15:13:17.410Z,20.13
2023-01-25T15:17:47.618Z,21.75
2023-01-25T15:22:01.165Z,23.02
2023-01-25T15:26:30.781Z,24.23
2023-01-25T15:30:43.364Z,23.87
2023-01-25T15:34:55.953Z,26.80
2023-01-25T15:39:18.642Z,27.00
2023-01-25T15:43:31.997Z,27.80
2023-01-25T15:47:44.319Z,27.48
2023-01-25T15:51:58.315Z,29.80
2023-01-25T15:56:17.108Z,28.63
2023-01-25T16:00:29.477Z,29.55
2023-01-25T16:04:42.565Z,29.17
2023-01-25T16:08:55.295Z,31.50
2023-01-25T16:13:13.933Z,33.28
2023-01-25T16:17:30.818Z,30.23
2023-01-25T16:21:44.989Z,29.92
2023-01-25T16:25:57.562Z,31.58
2023-01-25T16:30:18.954Z,20.05
2023-01-25T16:34:31.556Z,12.23
2023-01-25T16:38:44.661Z,3.72
2023-01-25T16:42:57.486Z,2.63
2023-01-25T16:47:14.836Z,3.20
2023-01-25T16:51:29.071Z,2.83
2023-01-25T16:55:41.591Z,1.92
2023-01-25T16:59:56.763Z,3.08
2023-01-25T17:04:09.377Z,4.00
2023-01-25T17:08:21.763Z,20.58
2023-01-25T17:12:34.224Z,35.72
2023-01-25T17:16:51.907Z,40.05
2023-01-25T17:21:07.316Z,43.72
2023-01-25T17:25:22.693Z,36.20
2023-01-25T17:29:35.177Z,37.25
2023-01-25T17:33:48.395Z,28.58
2023-01-25T17:38:03.556Z,34.35
2023-01-25T17:42:16.188Z,28.48
2023-01-25T17:46:33.520Z,27.20
2023-01-25T17:50:46.254Z,16.08
2023-01-25T17:55:00.708Z,15.07
2023-01-25T17:59:13.034Z,11.75
2023-01-25T18:03:25.525Z,8.25
2023-01-25T18:07:39.265Z,4.63
2023-01-25T18:11:51.775Z,3.53
2023-01-25T18:16:08.124Z,2.05
2023-01-25T18:20:22.026Z,2.55
2023-01-25T18:24:36.686Z,2.53
2023-01-25T18:28:52.027Z,2.20
2023-01-25T18:33:05.997Z,2.40
2023-01-25T18:37:21.364Z,2.10
2023-01-25T18:41:33.930Z,3.13
2023-01-25T18:45:53.601Z,2.80
2023-01-25T18:50:07.579Z,2.47
2023-01-25T18:54:20.026Z,2.20
2023-01-25T18:58:34.486Z,2.70
2023-01-25T19:02:47.127Z,3.50
2023-01-25T19:07:01.827Z,3.45
2023-01-25T19:11:17.464Z,2.83
2023-01-25T19:15:30.963Z,2.83
2023-01-25T19:19:45.405Z,1.98
2023-01-25T19:23:58.000Z,2.05
2023-01-25T19:28:10.445Z,2.08
2023-01-25T19:32:22.784Z,2.70
2023-01-25T19:36:37.595Z,1.58
2023-01-25T19:40:50.879Z,1.48
2023-01-25T19:45:04.940Z,1.42
2023-01-25T19:49:18.550Z,1.95
2023-01-25T19:53:30.940Z,1.90
2023-01-25T19:57:43.359Z,2.60
2023-01-25T20:01:55.921Z,3.20
2023-01-25T20:06:09.856Z,2.50
2023-01-25T20:10:22.384Z,2.17
2023-01-25T20:14:35.891Z,1.92
2023-01-25T20:18:49.457Z,2.00
2023-01-25T20:23:01.842Z,1.90
2023-01-25T20:27:14.245Z,1.95
2023-01-25T20:31:34.079Z,2.05
2023-01-25T20:35:46.698Z,2.00
2023-01-25T20:40:03.994Z,1.80
2023-01-25T20:44:18.246Z,1.48
2023-01-25T20:48:36.650Z,1.52
2023-01-25T20:52:49.102Z,1.73
2023-01-25T20:57:01.556Z,1.90
2023-01-25T21:01:16.340Z,1.70
2023-01-25T21:05:28.767Z,1.40
2023-01-25T21:09:42.916Z,1.55
2023-01-25T21:13:55.592Z,1.20
2023-01-25T21:18:08.104Z,1.60
2023-01-25T21:22:21.287Z,1.35
2023-01-25T21:26:36.138Z,1.50
2023-01-25T21:30:48.850Z,1.40
2023-01-25T21:35:01.297Z,1.27
2023-01-25T21:39:13.802Z,1.15
2023-01-25T21:43:26.158Z,0.80
2023-01-25T21:47:38.628Z,1.30
2023-01-25T21:51:53.151Z,1.20
2023-01-25T21:56:05.692Z,1.10
2023-01-25T22:00:18.559Z,1.30
2023-01-25T22:04:36.208Z,0.90
2023-01-25T22:08:48.727Z,1.08
2023-01-25T22:13:01.161Z,1.00
2023-01-25T22:17:14.680Z,0.80
2023-01-25T22:21:30.973Z,0.90
2023-01-25T22:25:43.886Z,1.00
2023-01-25T22:29:56.234Z,1.05
2023-01-25T22:34:11.507Z,1.02
2023-01-25T22:38:23.877Z,0.90
2023-01-25T22:42:36.171Z,1.00
2023-01-25T22:46:50.824Z,1.38
2023-01-25T22:51:10.613Z,0.90
2023-01-25T22:55:22.969Z,1.00
2023-01-25T22:59:35.916Z,0.90
2023-01-25T23:03:49.250Z,0.95
2023-01-25T23:08:05.220Z,0.90
2023-01-25T23:12:18.400Z,0.90
2023-01-25T23:16:31.246Z,1.60
2023-01-25T23:20:44.713Z,1.70
2023-01-25T23:24:59.884Z,1.13
2023-01-25T23:29:13.008Z,1.45
2023-01-25T23:33:26.811Z,11.98
2023-01-25T23:37:39.175Z,12.82
2023-01-25T23:41:52.648Z,13.30
2023-01-25T23:46:08.194Z,14.38
2023-01-25T23:50:20.423Z,12.27
2023-01-25T23:54:33.776Z,13.55
2023-01-25T23:58:47.924Z,18.33
